sensor_id;sensor_type;location;lat;lon;timestamp;P1;durP1;ratioP1;P2;durP2;ratioP2
43580;SDS011;29175;51.030;4.606;2023-01-05T00:01:18;40.70;;;8.65;;
43580;SDS011;29175;51.030;4.606;2023-01-05T00:03:44;42.00;;;9.18;;
43580;SDS011;29175;51.030;4.606;2023-01-05T00:06:11;43.22;;;9.55;;
43580;SDS011;29175;51.030;4.606;2023-01-05T00:08:38;51.08;;;10.23;;
43580;SDS011;29175;51.030;4.606;2023-01-05T00:11:09;62.42;;;10.93;;
43580;SDS011;29175;51.030;4.606;2023-01-05T00:13:55;47.38;;;10.20;;
43580;SDS011;29175;51.030;4.606;2023-01-05T00:16:39;46.38;;;10.80;;
43580;SDS011;29175;51.030;4.606;2023-01-05T00:19:24;51.83;;;9.75;;
43580;SDS011;29175;51.030;4.606;2023-01-05T00:22:15;56.65;;;11.57;;
43580;SDS011;29175;51.030;4.606;2023-01-05T00:25:09;51.05;;;9.57;;
43580;SDS011;29175;51.030;4.606;2023-01-05T00:27:36;62.75;;;10.90;;
43580;SDS011;29175;51.030;4.606;2023-01-05T00:30:03;56.95;;;10.60;;
43580;SDS011;29175;51.030;4.606;2023-01-05T00:32:29;59.53;;;10.40;;
43580;SDS011;29175;51.030;4.606;2023-01-05T00:34:56;71.03;;;10.27;;
43580;SDS011;29175;51.030;4.606;2023-01-05T00:37:23;50.33;;;9.63;;
43580;SDS011;29175;51.030;4.606;2023-01-05T00:39:54;57.78;;;10.23;;
43580;SDS011;29175;51.030;4.606;2023-01-05T00:42:20;48.28;;;9.18;;
43580;SDS011;29175;51.030;4.606;2023-01-05T00:44:46;47.13;;;9.90;;
43580;SDS011;29175;51.030;4.606;2023-01-05T00:47:12;48.63;;;9.35;;
43580;SDS011;29175;51.030;4.606;2023-01-05T00:49:39;59.50;;;10.43;;
43580;SDS011;29175;51.030;4.606;2023-01-05T00:52:05;47.47;;;9.43;;
43580;SDS011;29175;51.030;4.606;2023-01-05T00:54:31;72.07;;;10.05;;
43580;SDS011;29175;51.030;4.606;2023-01-05T00:56:57;48.60;;;10.15;;
43580;SDS011;29175;51.030;4.606;2023-01-05T00:59:22;34.58;;;8.45;;
43580;SDS011;29175;51.030;4.606;2023-01-05T01:01:49;43.33;;;9.30;;
43580;SDS011;29175;51.030;4.606;2023-01-05T01:04:16;28.55;;;7.70;;
43580;SDS011;29175;51.030;4.606;2023-01-05T01:06:43;50.20;;;8.48;;
43580;SDS011;29175;51.030;4.606;2023-01-05T01:09:10;45.70;;;9.30;;
43580;SDS011;29175;51.030;4.606;2023-01-05T01:11:36;39.67;;;8.35;;
43580;SDS011;29175;51.030;4.606;2023-01-05T01:14:03;37.45;;;7.97;;
43580;SDS011;29175;51.030;4.606;2023-01-05T01:16:30;39.08;;;8.25;;
43580;SDS011;29175;51.030;4.606;2023-01-05T01:18:57;48.47;;;8.27;;
43580;SDS011;29175;51.030;4.606;2023-01-05T01:21:23;57.65;;;8.60;;
43580;SDS011;29175;51.030;4.606;2023-01-05T01:23:49;37.60;;;8.35;;
43580;SDS011;29175;51.030;4.606;2023-01-05T01:26:14;41.45;;;9.00;;
43580;SDS011;29175;51.030;4.606;2023-01-05T01:28:40;50.45;;;8.50;;
43580;SDS011;29175;51.030;4.606;2023-01-05T01:31:06;42.50;;;9.05;;
43580;SDS011;29175;51.030;4.606;2023-01-05T01:33:32;64.28;;;9.85;;
43580;SDS011;29175;51.030;4.606;2023-01-05T01:36:02;44.20;;;6.97;;
43580;SDS011;29175;51.030;4.606;2023-01-05T01:38:28;34.05;;;8.00;;
43580;SDS011;29175;51.030;4.606;2023-01-05T01:40:54;46.72;;;8.93;;
43580;SDS011;29175;51.030;4.606;2023-01-05T01:43:40;40.97;;;8.25;;
43580;SDS011;29175;51.030;4.606;2023-01-05T01:46:07;45.83;;;7.90;;
43580;SDS011;29175;51.030;4.606;2023-01-05T01:48:34;37.97;;;6.93;;
43580;SDS011;29175;51.030;4.606;2023-01-05T01:51:03;39.45;;;7.90;;
43580;SDS011;29175;51.030;4.606;2023-01-05T01:53:36;38.08;;;7.72;;
43580;SDS011;29175;51.030;4.606;2023-01-05T01:56:06;43.10;;;7.78;;
43580;SDS011;29175;51.030;4.606;2023-01-05T01:58:37;41.90;;;7.90;;
43580;SDS011;29175;51.030;4.606;2023-01-05T02:01:06;52.67;;;7.73;;
43580;SDS011;29175;51.030;4.606;2023-01-05T02:03:33;44.40;;;8.77;;
43580;SDS011;29175;51.030;4.606;2023-01-05T02:05:58;50.67;;;8.57;;
43580;SDS011;29175;51.030;4.606;2023-01-05T02:08:25;35.72;;;6.80;;
43580;SDS011;29175;51.030;4.606;2023-01-05T02:18:53;28.85;;;7.45;;
43580;SDS011;29175;51.030;4.606;2023-01-05T02:31:54;44.10;;;7.60;;
43580;SDS011;29175;51.030;4.606;2023-01-05T02:34:59;58.03;;;7.63;;
43580;SDS011;29175;51.030;4.606;2023-01-05T02:37:31;40.90;;;7.57;;
43580;SDS011;29175;51.030;4.606;2023-01-05T02:40:19;36.75;;;8.95;;
43580;SDS011;29175;51.030;4.606;2023-01-05T02:42:49;35.58;;;6.78;;
43580;SDS011;29175;51.030;4.606;2023-01-05T02:45:20;39.67;;;8.27;;
43580;SDS011;29175;51.030;4.606;2023-01-05T02:50:18;48.25;;;7.85;;
43580;SDS011;29175;51.030;4.606;2023-01-05T02:53:05;46.83;;;9.18;;
43580;SDS011;29175;51.030;4.606;2023-01-05T02:55:42;35.33;;;8.60;;
43580;SDS011;29175;51.030;4.606;2023-01-05T03:03:56;44.15;;;9.65;;
43580;SDS011;29175;51.030;4.606;2023-01-05T03:06:45;56.38;;;8.85;;
43580;SDS011;29175;51.030;4.606;2023-01-05T03:09:20;38.17;;;8.45;;
43580;SDS011;29175;51.030;4.606;2023-01-05T03:14:55;54.03;;;8.30;;
43580;SDS011;29175;51.030;4.606;2023-01-05T03:18:14;40.00;;;7.85;;
43580;SDS011;29175;51.030;4.606;2023-01-05T03:20:25;57.78;;;8.52;;
43580;SDS011;29175;51.030;4.606;2023-01-05T03:22:54;41.85;;;8.65;;
43580;SDS011;29175;51.030;4.606;2023-01-05T03:25:40;50.28;;;8.38;;
43580;SDS011;29175;51.030;4.606;2023-01-05T03:28:29;52.33;;;8.60;;
43580;SDS011;29175;51.030;4.606;2023-01-05T03:34:38;59.22;;;9.45;;
43580;SDS011;29175;51.030;4.606;2023-01-05T03:40:14;50.17;;;9.38;;
43580;SDS011;29175;51.030;4.606;2023-01-05T03:43:01;42.97;;;8.90;;
43580;SDS011;29175;51.030;4.606;2023-01-05T03:45:32;42.55;;;8.48;;
43580;SDS011;29175;51.030;4.606;2023-01-05T03:48:03;42.95;;;9.68;;
43580;SDS011;29175;51.030;4.606;2023-01-05T03:50:29;38.25;;;8.38;;
43580;SDS011;29175;51.030;4.606;2023-01-05T03:52:55;49.63;;;9.35;;
43580;SDS011;29175;51.030;4.606;2023-01-05T03:55:21;42.10;;;7.88;;
43580;SDS011;29175;51.030;4.606;2023-01-05T03:57:47;47.83;;;8.57;;
43580;SDS011;29175;51.030;4.606;2023-01-05T04:00:13;46.33;;;8.25;;
43580;SDS011;29175;51.030;4.606;2023-01-05T04:02:39;60.03;;;9.75;;
43580;SDS011;29175;51.030;4.606;2023-01-05T04:05:05;47.05;;;9.00;;
43580;SDS011;29175;51.030;4.606;2023-01-05T04:07:31;46.90;;;9.10;;
43580;SDS011;29175;51.030;4.606;2023-01-05T04:09:57;41.38;;;7.38;;
43580;SDS011;29175;51.030;4.606;2023-01-05T04:12:23;38.58;;;8.02;;
43580;SDS011;29175;51.030;4.606;2023-01-05T04:14:48;44.35;;;7.35;;
43580;SDS011;29175;51.030;4.606;2023-01-05T04:17:14;40.03;;;8.00;;
43580;SDS011;29175;51.030;4.606;2023-01-05T04:19:40;49.38;;;7.95;;
43580;SDS011;29175;51.030;4.606;2023-01-05T04:22:06;52.13;;;9.07;;
43580;SDS011;29175;51.030;4.606;2023-01-05T04:24:32;53.50;;;7.78;;
43580;SDS011;29175;51.030;4.606;2023-01-05T04:26:58;33.33;;;8.02;;
43580;SDS011;29175;51.030;4.606;2023-01-05T04:29:23;53.28;;;9.60;;
43580;SDS011;29175;51.030;4.606;2023-01-05T04:31:49;40.75;;;7.82;;
43580;SDS011;29175;51.030;4.606;2023-01-05T04:34:15;67.75;;;10.02;;
43580;SDS011;29175;51.030;4.606;2023-01-05T04:36:41;34.63;;;7.80;;
43580;SDS011;29175;51.030;4.606;2023-01-05T04:39:07;43.78;;;8.05;;
43580;SDS011;29175;51.030;4.606;2023-01-05T04:41:33;42.03;;;7.45;;
43580;SDS011;29175;51.030;4.606;2023-01-05T04:43:58;52.00;;;8.20;;
43580;SDS011;29175;51.030;4.606;2023-01-05T04:46:24;61.53;;;8.45;;
43580;SDS011;29175;51.030;4.606;2023-01-05T04:48:50;45.08;;;9.07;;
43580;SDS011;29175;51.030;4.606;2023-01-05T04:51:16;51.63;;;9.80;;
43580;SDS011;29175;51.030;4.606;2023-01-05T04:53:42;50.53;;;8.82;;
43580;SDS011;29175;51.030;4.606;2023-01-05T04:56:07;44.53;;;8.38;;
43580;SDS011;29175;51.030;4.606;2023-01-05T04:58:34;50.10;;;8.05;;
43580;SDS011;29175;51.030;4.606;2023-01-05T05:01:00;52.78;;;8.75;;
43580;SDS011;29175;51.030;4.606;2023-01-05T05:03:26;46.63;;;7.35;;
43580;SDS011;29175;51.030;4.606;2023-01-05T05:05:52;39.28;;;8.13;;
43580;SDS011;29175;51.030;4.606;2023-01-05T05:08:18;45.10;;;9.23;;
43580;SDS011;29175;51.030;4.606;2023-01-05T05:10:43;49.25;;;8.80;;
43580;SDS011;29175;51.030;4.606;2023-01-05T05:13:09;34.00;;;8.82;;
43580;SDS011;29175;51.030;4.606;2023-01-05T05:15:35;44.63;;;7.68;;
43580;SDS011;29175;51.030;4.606;2023-01-05T05:18:01;33.22;;;8.13;;
43580;SDS011;29175;51.030;4.606;2023-01-05T05:20:27;48.63;;;8.93;;
43580;SDS011;29175;51.030;4.606;2023-01-05T05:22:52;43.85;;;7.95;;
43580;SDS011;29175;51.030;4.606;2023-01-05T05:25:18;50.30;;;9.80;;
43580;SDS011;29175;51.030;4.606;2023-01-05T05:27:44;44.53;;;8.68;;
43580;SDS011;29175;51.030;4.606;2023-01-05T05:30:10;54.50;;;8.75;;
43580;SDS011;29175;51.030;4.606;2023-01-05T05:32:36;40.15;;;9.05;;
43580;SDS011;29175;51.030;4.606;2023-01-05T05:35:02;53.85;;;9.45;;
43580;SDS011;29175;51.030;4.606;2023-01-05T05:37:28;36.78;;;7.85;;
43580;SDS011;29175;51.030;4.606;2023-01-05T05:39:53;47.38;;;9.48;;
43580;SDS011;29175;51.030;4.606;2023-01-05T05:42:19;38.67;;;8.65;;
43580;SDS011;29175;51.030;4.606;2023-01-05T05:44:45;45.50;;;8.73;;
43580;SDS011;29175;51.030;4.606;2023-01-05T05:47:11;60.65;;;9.82;;
43580;SDS011;29175;51.030;4.606;2023-01-05T05:49:37;41.45;;;7.90;;
43580;SDS011;29175;51.030;4.606;2023-01-05T05:52:02;42.50;;;9.48;;
43580;SDS011;29175;51.030;4.606;2023-01-05T05:54:28;47.40;;;7.60;;
43580;SDS011;29175;51.030;4.606;2023-01-05T05:56:54;40.53;;;9.05;;
43580;SDS011;29175;51.030;4.606;2023-01-05T05:59:20;46.58;;;9.23;;
43580;SDS011;29175;51.030;4.606;2023-01-05T06:01:46;48.13;;;8.65;;
43580;SDS011;29175;51.030;4.606;2023-01-05T06:04:12;41.63;;;8.27;;
43580;SDS011;29175;51.030;4.606;2023-01-05T06:06:37;65.80;;;9.98;;
43580;SDS011;29175;51.030;4.606;2023-01-05T06:09:04;45.22;;;9.60;;
43580;SDS011;29175;51.030;4.606;2023-01-05T06:11:30;51.53;;;8.55;;
43580;SDS011;29175;51.030;4.606;2023-01-05T06:13:55;43.80;;;8.88;;
43580;SDS011;29175;51.030;4.606;2023-01-05T06:16:21;49.83;;;9.05;;
43580;SDS011;29175;51.030;4.606;2023-01-05T06:18:47;47.10;;;8.88;;
43580;SDS011;29175;51.030;4.606;2023-01-05T06:21:13;58.15;;;9.80;;
43580;SDS011;29175;51.030;4.606;2023-01-05T06:23:38;52.03;;;9.63;;
43580;SDS011;29175;51.030;4.606;2023-01-05T06:26:04;57.92;;;8.55;;
43580;SDS011;29175;51.030;4.606;2023-01-05T06:28:30;53.95;;;8.68;;
43580;SDS011;29175;51.030;4.606;2023-01-05T06:30:56;49.10;;;9.93;;
43580;SDS011;29175;51.030;4.606;2023-01-05T06:33:22;52.08;;;9.60;;
43580;SDS011;29175;51.030;4.606;2023-01-05T06:35:47;42.03;;;8.98;;
43580;SDS011;29175;51.030;4.606;2023-01-05T06:38:13;55.83;;;9.18;;
43580;SDS011;29175;51.030;4.606;2023-01-05T06:40:40;40.22;;;9.75;;
43580;SDS011;29175;51.030;4.606;2023-01-05T06:43:09;49.65;;;8.85;;
43580;SDS011;29175;51.030;4.606;2023-01-05T06:45:35;44.10;;;8.70;;
43580;SDS011;29175;51.030;4.606;2023-01-05T06:48:01;47.40;;;8.50;;
43580;SDS011;29175;51.030;4.606;2023-01-05T06:50:27;45.22;;;10.55;;
43580;SDS011;29175;51.030;4.606;2023-01-05T06:52:54;57.80;;;10.30;;
43580;SDS011;29175;51.030;4.606;2023-01-05T06:55:20;59.40;;;8.88;;
43580;SDS011;29175;51.030;4.606;2023-01-05T06:57:46;49.90;;;10.23;;
43580;SDS011;29175;51.030;4.606;2023-01-05T07:00:12;62.75;;;9.07;;
43580;SDS011;29175;51.030;4.606;2023-01-05T07:02:39;59.67;;;10.00;;
43580;SDS011;29175;51.030;4.606;2023-01-05T07:05:06;49.45;;;9.65;;
43580;SDS011;29175;51.030;4.606;2023-01-05T07:07:32;53.22;;;9.15;;
43580;SDS011;29175;51.030;4.606;2023-01-05T07:09:58;72.90;;;10.85;;
43580;SDS011;29175;51.030;4.606;2023-01-05T07:12:24;39.13;;;9.23;;
43580;SDS011;29175;51.030;4.606;2023-01-05T07:14:50;52.65;;;9.90;;
43580;SDS011;29175;51.030;4.606;2023-01-05T07:17:16;52.58;;;10.18;;
43580;SDS011;29175;51.030;4.606;2023-01-05T07:19:41;52.17;;;8.80;;
43580;SDS011;29175;51.030;4.606;2023-01-05T07:22:07;57.55;;;9.85;;
43580;SDS011;29175;51.030;4.606;2023-01-05T07:24:33;48.47;;;9.75;;
43580;SDS011;29175;51.030;4.606;2023-01-05T07:26:59;51.13;;;9.35;;
43580;SDS011;29175;51.030;4.606;2023-01-05T07:29:25;45.15;;;10.40;;
43580;SDS011;29175;51.030;4.606;2023-01-05T07:31:51;44.45;;;9.52;;
43580;SDS011;29175;51.030;4.606;2023-01-05T07:34:17;57.78;;;10.30;;
43580;SDS011;29175;51.030;4.606;2023-01-05T07:36:43;47.05;;;9.02;;
43580;SDS011;29175;51.030;4.606;2023-01-05T07:39:09;52.97;;;9.50;;
43580;SDS011;29175;51.030;4.606;2023-01-05T07:41:34;54.70;;;9.80;;
43580;SDS011;29175;51.030;4.606;2023-01-05T07:44:00;44.63;;;9.30;;
43580;SDS011;29175;51.030;4.606;2023-01-05T07:46:26;43.85;;;8.63;;
43580;SDS011;29175;51.030;4.606;2023-01-05T07:48:52;60.53;;;9.75;;
43580;SDS011;29175;51.030;4.606;2023-01-05T07:51:17;47.92;;;9.57;;
43580;SDS011;29175;51.030;4.606;2023-01-05T07:53:43;65.22;;;9.73;;
43580;SDS011;29175;51.030;4.606;2023-01-05T07:56:10;49.25;;;9.70;;
43580;SDS011;29175;51.030;4.606;2023-01-05T07:58:36;51.75;;;9.48;;
43580;SDS011;29175;51.030;4.606;2023-01-05T08:01:03;58.33;;;9.52;;
43580;SDS011;29175;51.030;4.606;2023-01-05T08:03:29;58.50;;;9.93;;
43580;SDS011;29175;51.030;4.606;2023-01-05T08:05:55;56.50;;;11.75;;
43580;SDS011;29175;51.030;4.606;2023-01-05T08:08:21;49.70;;;8.95;;
43580;SDS011;29175;51.030;4.606;2023-01-05T08:10:47;66.03;;;10.80;;
43580;SDS011;29175;51.030;4.606;2023-01-05T08:13:13;50.85;;;9.90;;
43580;SDS011;29175;51.030;4.606;2023-01-05T08:15:57;50.72;;;10.63;;
43580;SDS011;29175;51.030;4.606;2023-01-05T08:18:24;55.47;;;9.50;;
43580;SDS011;29175;51.030;4.606;2023-01-05T08:20:58;44.85;;;9.65;;
43580;SDS011;29175;51.030;4.606;2023-01-05T08:23:27;49.70;;;9.80;;
43580;SDS011;29175;51.030;4.606;2023-01-05T08:25:53;62.83;;;8.90;;
43580;SDS011;29175;51.030;4.606;2023-01-05T08:28:19;55.13;;;9.82;;
43580;SDS011;29175;51.030;4.606;2023-01-05T08:30:45;56.95;;;10.70;;
43580;SDS011;29175;51.030;4.606;2023-01-05T08:33:11;44.28;;;9.05;;
43580;SDS011;29175;51.030;4.606;2023-01-05T08:35:41;49.95;;;8.82;;
43580;SDS011;29175;51.030;4.606;2023-01-05T08:38:07;41.58;;;7.90;;
43580;SDS011;29175;51.030;4.606;2023-01-05T08:40:35;53.78;;;10.25;;
43580;SDS011;29175;51.030;4.606;2023-01-05T08:43:02;45.55;;;8.27;;
43580;SDS011;29175;51.030;4.606;2023-01-05T08:45:28;38.70;;;9.45;;
43580;SDS011;29175;51.030;4.606;2023-01-05T08:47:54;41.88;;;8.90;;
43580;SDS011;29175;51.030;4.606;2023-01-05T08:50:20;58.00;;;8.95;;
43580;SDS011;29175;51.030;4.606;2023-01-05T08:52:46;53.17;;;9.85;;
43580;SDS011;29175;51.030;4.606;2023-01-05T08:55:12;44.00;;;9.43;;
43580;SDS011;29175;51.030;4.606;2023-01-05T08:57:37;43.60;;;8.43;;
43580;SDS011;29175;51.030;4.606;2023-01-05T09:00:03;45.72;;;10.25;;
43580;SDS011;29175;51.030;4.606;2023-01-05T09:02:30;45.90;;;8.95;;
43580;SDS011;29175;51.030;4.606;2023-01-05T09:04:55;52.78;;;9.90;;
43580;SDS011;29175;51.030;4.606;2023-01-05T09:07:21;45.55;;;9.13;;
43580;SDS011;29175;51.030;4.606;2023-01-05T09:09:47;44.33;;;9.45;;
43580;SDS011;29175;51.030;4.606;2023-01-05T09:12:13;49.85;;;9.50;;
43580;SDS011;29175;51.030;4.606;2023-01-05T09:14:39;44.85;;;8.75;;
43580;SDS011;29175;51.030;4.606;2023-01-05T09:17:04;53.05;;;9.05;;
43580;SDS011;29175;51.030;4.606;2023-01-05T09:19:30;40.80;;;9.98;;
43580;SDS011;29175;51.030;4.606;2023-01-05T09:21:56;46.13;;;8.48;;
43580;SDS011;29175;51.030;4.606;2023-01-05T09:24:22;38.80;;;8.65;;
43580;SDS011;29175;51.030;4.606;2023-01-05T09:26:48;46.80;;;9.57;;
43580;SDS011;29175;51.030;4.606;2023-01-05T09:29:14;62.90;;;8.68;;
43580;SDS011;29175;51.030;4.606;2023-01-05T09:31:40;65.15;;;9.32;;
43580;SDS011;29175;51.030;4.606;2023-01-05T09:34:07;48.75;;;8.45;;
43580;SDS011;29175;51.030;4.606;2023-01-05T09:36:33;52.33;;;9.90;;
43580;SDS011;29175;51.030;4.606;2023-01-05T09:39:00;40.33;;;8.93;;
43580;SDS011;29175;51.030;4.606;2023-01-05T09:41:38;42.58;;;9.27;;
43580;SDS011;29175;51.030;4.606;2023-01-05T09:46:50;52.55;;;9.77;;
43580;SDS011;29175;51.030;4.606;2023-01-05T09:49:20;40.17;;;9.25;;
43580;SDS011;29175;51.030;4.606;2023-01-05T09:51:48;47.55;;;9.40;;
43580;SDS011;29175;51.030;4.606;2023-01-05T09:54:19;48.00;;;9.05;;
43580;SDS011;29175;51.030;4.606;2023-01-05T09:56:46;47.00;;;8.48;;
43580;SDS011;29175;51.030;4.606;2023-01-05T09:59:16;56.88;;;9.38;;
43580;SDS011;29175;51.030;4.606;2023-01-05T10:01:48;53.10;;;10.05;;
43580;SDS011;29175;51.030;4.606;2023-01-05T10:04:20;55.28;;;8.80;;
43580;SDS011;29175;51.030;4.606;2023-01-05T10:06:52;45.75;;;8.77;;
43580;SDS011;29175;51.030;4.606;2023-01-05T10:09:32;39.70;;;8.52;;
43580;SDS011;29175;51.030;4.606;2023-01-05T10:12:14;55.13;;;9.43;;
43580;SDS011;29175;51.030;4.606;2023-01-05T10:15:05;47.33;;;9.25;;
43580;SDS011;29175;51.030;4.606;2023-01-05T10:17:40;50.33;;;9.38;;
43580;SDS011;29175;51.030;4.606;2023-01-05T10:20:13;36.13;;;8.90;;
43580;SDS011;29175;51.030;4.606;2023-01-05T10:22:45;67.35;;;10.38;;
43580;SDS011;29175;51.030;4.606;2023-01-05T10:36:26;60.28;;;9.55;;
43580;SDS011;29175;51.030;4.606;2023-01-05T10:41:47;57.75;;;9.07;;
43580;SDS011;29175;51.030;4.606;2023-01-05T10:47:27;65.13;;;9.02;;
43580;SDS011;29175;51.030;4.606;2023-01-05T10:49:54;45.83;;;9.38;;
43580;SDS011;29175;51.030;4.606;2023-01-05T10:52:21;55.75;;;9.45;;
43580;SDS011;29175;51.030;4.606;2023-01-05T10:54:51;44.22;;;8.10;;
43580;SDS011;29175;51.030;4.606;2023-01-05T11:00:08;44.97;;;8.85;;
43580;SDS011;29175;51.030;4.606;2023-01-05T11:02:38;39.67;;;8.10;;
43580;SDS011;29175;51.030;4.606;2023-01-05T11:05:17;41.67;;;9.50;;
43580;SDS011;29175;51.030;4.606;2023-01-05T11:07:55;41.60;;;9.05;;
43580;SDS011;29175;51.030;4.606;2023-01-05T11:13:01;42.25;;;8.98;;
43580;SDS011;29175;51.030;4.606;2023-01-05T11:15:30;37.35;;;8.05;;
43580;SDS011;29175;51.030;4.606;2023-01-05T11:17:58;41.90;;;9.45;;
43580;SDS011;29175;51.030;4.606;2023-01-05T11:20:26;41.22;;;8.32;;
43580;SDS011;29175;51.030;4.606;2023-01-05T11:22:54;39.38;;;7.90;;
43580;SDS011;29175;51.030;4.606;2023-01-05T11:28:12;34.30;;;7.35;;
43580;SDS011;29175;51.030;4.606;2023-01-05T11:33:23;42.65;;;8.43;;
43580;SDS011;29175;51.030;4.606;2023-01-05T11:35:52;40.97;;;7.82;;
43580;SDS011;29175;51.030;4.606;2023-01-05T11:38:20;30.25;;;7.53;;
43580;SDS011;29175;51.030;4.606;2023-01-05T11:40:49;42.35;;;8.48;;
43580;SDS011;29175;51.030;4.606;2023-01-05T11:43:15;40.15;;;7.03;;
43580;SDS011;29175;51.030;4.606;2023-01-05T11:45:45;41.10;;;7.88;;
43580;SDS011;29175;51.030;4.606;2023-01-05T11:48:17;53.15;;;8.55;;
43580;SDS011;29175;51.030;4.606;2023-01-05T11:50:48;42.90;;;8.73;;
43580;SDS011;29175;51.030;4.606;2023-01-05T11:53:23;43.17;;;8.77;;
43580;SDS011;29175;51.030;4.606;2023-01-05T11:56:31;28.75;;;7.53;;
43580;SDS011;29175;51.030;4.606;2023-01-05T11:58:48;52.88;;;9.82;;
43580;SDS011;29175;51.030;4.606;2023-01-05T12:07:35;53.20;;;7.90;;
43580;SDS011;29175;51.030;4.606;2023-01-05T12:15:46;47.65;;;8.52;;
43580;SDS011;29175;51.030;4.606;2023-01-05T12:18:35;45.85;;;8.23;;
43580;SDS011;29175;51.030;4.606;2023-01-05T12:21:23;45.88;;;8.90;;
43580;SDS011;29175;51.030;4.606;2023-01-05T12:26:44;33.22;;;7.65;;
43580;SDS011;29175;51.030;4.606;2023-01-05T12:29:28;39.95;;;7.63;;
43580;SDS011;29175;51.030;4.606;2023-01-05T12:32:47;37.90;;;8.88;;
43580;SDS011;29175;51.030;4.606;2023-01-05T12:41:02;39.90;;;8.25;;
43580;SDS011;29175;51.030;4.606;2023-01-05T12:49:45;43.95;;;8.50;;
43580;SDS011;29175;51.030;4.606;2023-01-05T12:52:35;56.38;;;9.00;;
43580;SDS011;29175;51.030;4.606;2023-01-05T12:57:49;44.47;;;8.85;;
43580;SDS011;29175;51.030;4.606;2023-01-05T13:00:21;53.15;;;8.77;;
43580;SDS011;29175;51.030;4.606;2023-01-05T13:02:57;43.10;;;8.20;;
43580;SDS011;29175;51.030;4.606;2023-01-05T13:11:10;33.78;;;8.07;;
43580;SDS011;29175;51.030;4.606;2023-01-05T13:13:55;42.28;;;9.30;;
43580;SDS011;29175;51.030;4.606;2023-01-05T13:16:29;44.53;;;9.05;;
43580;SDS011;29175;51.030;4.606;2023-01-05T13:19:01;49.15;;;8.75;;
43580;SDS011;29175;51.030;4.606;2023-01-05T13:21:37;44.78;;;7.97;;
43580;SDS011;29175;51.030;4.606;2023-01-05T13:24:10;44.60;;;8.27;;
43580;SDS011;29175;51.030;4.606;2023-01-05T13:26:46;51.00;;;8.60;;
43580;SDS011;29175;51.030;4.606;2023-01-05T13:29:22;40.55;;;9.13;;
43580;SDS011;29175;51.030;4.606;2023-01-05T13:32:10;49.00;;;9.70;;
43580;SDS011;29175;51.030;4.606;2023-01-05T13:40:37;58.90;;;9.85;;
43580;SDS011;29175;51.030;4.606;2023-01-05T13:43:16;54.10;;;10.68;;
43580;SDS011;29175;51.030;4.606;2023-01-05T13:54:17;59.78;;;9.55;;
43580;SDS011;29175;51.030;4.606;2023-01-05T13:57:06;65.75;;;10.30;;
43580;SDS011;29175;51.030;4.606;2023-01-05T13:59:37;55.63;;;8.98;;
43580;SDS011;29175;51.030;4.606;2023-01-05T14:02:04;45.28;;;8.95;;
43580;SDS011;29175;51.030;4.606;2023-01-05T14:05:13;52.00;;;9.48;;
43580;SDS011;29175;51.030;4.606;2023-01-05T14:07:47;50.13;;;9.40;;
43580;SDS011;29175;51.030;4.606;2023-01-05T14:10:26;39.72;;;8.85;;
43580;SDS011;29175;51.030;4.606;2023-01-05T14:12:54;44.40;;;9.60;;
43580;SDS011;29175;51.030;4.606;2023-01-05T14:15:40;50.80;;;9.57;;
43580;SDS011;29175;51.030;4.606;2023-01-05T14:18:11;47.05;;;10.00;;
43580;SDS011;29175;51.030;4.606;2023-01-05T14:20:57;56.30;;;10.52;;
43580;SDS011;29175;51.030;4.606;2023-01-05T14:25:50;59.22;;;11.15;;
43580;SDS011;29175;51.030;4.606;2023-01-05T14:28:18;54.00;;;10.45;;
43580;SDS011;29175;51.030;4.606;2023-01-05T14:41:29;66.35;;;12.77;;
43580;SDS011;29175;51.030;4.606;2023-01-05T14:46:41;61.03;;;12.15;;
43580;SDS011;29175;51.030;4.606;2023-01-05T14:49:21;45.00;;;10.32;;
43580;SDS011;29175;51.030;4.606;2023-01-05T14:51:53;38.63;;;10.70;;
43580;SDS011;29175;51.030;4.606;2023-01-05T14:59:55;65.90;;;14.25;;
43580;SDS011;29175;51.030;4.606;2023-01-05T15:02:28;43.03;;;11.10;;
43580;SDS011;29175;51.030;4.606;2023-01-05T15:05:03;42.97;;;11.00;;
43580;SDS011;29175;51.030;4.606;2023-01-05T15:16:21;36.63;;;11.00;;
43580;SDS011;29175;51.030;4.606;2023-01-05T15:21:45;34.97;;;10.95;;
43580;SDS011;29175;51.030;4.606;2023-01-05T15:32:28;30.88;;;9.27;;
43580;SDS011;29175;51.030;4.606;2023-01-05T15:37:43;29.95;;;10.00;;
43580;SDS011;29175;51.030;4.606;2023-01-05T15:42:44;20.52;;;7.38;;
43580;SDS011;29175;51.030;4.606;2023-01-05T15:47:48;21.90;;;8.25;;
43580;SDS011;29175;51.030;4.606;2023-01-05T15:50:20;27.17;;;8.95;;
43580;SDS011;29175;51.030;4.606;2023-01-05T15:52:52;24.70;;;8.70;;
43580;SDS011;29175;51.030;4.606;2023-01-05T15:55:20;31.30;;;9.63;;
43580;SDS011;29175;51.030;4.606;2023-01-05T15:58:13;19.35;;;7.72;;
43580;SDS011;29175;51.030;4.606;2023-01-05T16:00:41;20.70;;;7.03;;
43580;SDS011;29175;51.030;4.606;2023-01-05T16:03:29;16.17;;;6.78;;
43580;SDS011;29175;51.030;4.606;2023-01-05T16:06:05;28.60;;;8.73;;
43580;SDS011;29175;51.030;4.606;2023-01-05T16:08:42;21.70;;;7.60;;
43580;SDS011;29175;51.030;4.606;2023-01-05T16:11:10;19.55;;;7.65;;
43580;SDS011;29175;51.030;4.606;2023-01-05T16:16:20;22.52;;;7.40;;
43580;SDS011;29175;51.030;4.606;2023-01-05T16:18:59;18.80;;;6.75;;
43580;SDS011;29175;51.030;4.606;2023-01-05T16:21:45;21.20;;;7.63;;
43580;SDS011;29175;51.030;4.606;2023-01-05T16:24:30;21.92;;;7.25;;
43580;SDS011;29175;51.030;4.606;2023-01-05T16:27:03;17.58;;;7.20;;
43580;SDS011;29175;51.030;4.606;2023-01-05T16:29:37;20.85;;;8.40;;
43580;SDS011;29175;51.030;4.606;2023-01-05T16:32:26;27.38;;;8.55;;
43580;SDS011;29175;51.030;4.606;2023-01-05T16:38:01;22.27;;;8.75;;
43580;SDS011;29175;51.030;4.606;2023-01-05T16:41:24;20.73;;;8.70;;
43580;SDS011;29175;51.030;4.606;2023-01-05T16:43:45;23.98;;;9.27;;
43580;SDS011;29175;51.030;4.606;2023-01-05T16:49:26;26.33;;;9.57;;
43580;SDS011;29175;51.030;4.606;2023-01-05T16:52:00;30.48;;;10.93;;
43580;SDS011;29175;51.030;4.606;2023-01-05T16:54:32;31.83;;;10.65;;
43580;SDS011;29175;51.030;4.606;2023-01-05T16:57:04;31.95;;;11.07;;
43580;SDS011;29175;51.030;4.606;2023-01-05T16:59:53;23.38;;;10.65;;
43580;SDS011;29175;51.030;4.606;2023-01-05T17:04:53;29.90;;;10.85;;
43580;SDS011;29175;51.030;4.606;2023-01-05T17:07:18;30.58;;;11.70;;
43580;SDS011;29175;51.030;4.606;2023-01-05T17:09:44;29.17;;;12.93;;
43580;SDS011;29175;51.030;4.606;2023-01-05T17:12:11;35.72;;;13.65;;
43580;SDS011;29175;51.030;4.606;2023-01-05T17:14:37;29.75;;;12.57;;
43580;SDS011;29175;51.030;4.606;2023-01-05T17:17:07;30.27;;;12.65;;
43580;SDS011;29175;51.030;4.606;2023-01-05T17:19:35;38.30;;;14.93;;
43580;SDS011;29175;51.030;4.606;2023-01-05T17:22:01;33.50;;;12.90;;
43580;SDS011;29175;51.030;4.606;2023-01-05T17:24:31;29.30;;;12.15;;
43580;SDS011;29175;51.030;4.606;2023-01-05T17:26:58;37.72;;;14.80;;
43580;SDS011;29175;51.030;4.606;2023-01-05T17:29:25;29.48;;;13.73;;
43580;SDS011;29175;51.030;4.606;2023-01-05T17:31:52;37.42;;;13.95;;
43580;SDS011;29175;51.030;4.606;2023-01-05T17:34:19;26.25;;;12.30;;
43580;SDS011;29175;51.030;4.606;2023-01-05T17:36:45;23.10;;;10.90;;
43580;SDS011;29175;51.030;4.606;2023-01-05T17:39:14;28.25;;;11.57;;
43580;SDS011;29175;51.030;4.606;2023-01-05T17:41:44;26.17;;;12.25;;
43580;SDS011;29175;51.030;4.606;2023-01-05T17:44:11;22.17;;;10.93;;
43580;SDS011;29175;51.030;4.606;2023-01-05T17:46:38;23.35;;;10.95;;